Time;durP1;ratioP1;P1;durP2;ratioP2;P2;SDS_P1;SDS_P2;PMS_P1;PMS_P2;Temp;Humidity;BMP_temperature;BMP_pressure;BME280_temperature;BME280_humidity;BME280_pressure;Samples;Min_cycle;Max_cycle;Signal;HPM_P1;HPM_P2
2021/04/05 12:58:41;;;;;;;12.32;6.75;;;;;;;;;;5111964;27;20386;-78
2021/04/05 13:01:07;;;;;;;15.13;8.23;;;;;;;;;;5068429;28;20092;-78
2021/04/05 13:03:35;;;;;;;13.77;6.72;;;;;;;;;;5062797;28;20247;-78
2021/04/05 13:06:05;;;;;;;23.88;9.57;;;;;;;;;;5091409;28;20027;-79
2021/04/05 13:08:37;;;;;;;12.52;7.13;;;;;;;;;;5089662;28;20052;-78
2021/04/05 13:11:06;;;;;;;17.85;9.55;;;;;;;;;;5090602;28;20039;-78
2021/04/05 13:13:37;;;;;;;22.30;9.00;;;;;;;;;;5075235;28;20035;-78
2021/04/05 13:16:32;;;;;;;17.98;8.48;;;;;;;;;;5086234;28;20037;-78
2021/04/05 13:19:02;;;;;;;16.90;8.77;;;;;;;;;;5063734;28;20500;-78
2021/04/05 13:21:34;;;;;;;17.92;7.70;;;;;;;;;;5102022;28;20027;-77
2021/04/05 13:24:02;;;;;;;19.65;8.50;;;;;;;;;;5105647;28;20518;-81
2021/04/05 13:26:35;;;;;;;21.08;9.40;;;;;;;;;;5090029;28;20031;-79
2021/04/05 13:29:02;;;;;;;41.03;18.52;;;;;;;;;;5085748;28;20021;-80
2021/04/05 13:31:29;;;;;;;20.60;9.40;;;;;;;;;;5069411;28;20120;-79
2021/04/05 13:33:55;;;;;;;16.90;9.70;;;;;;;;;;5071629;28;20044;-80
2021/04/05 13:36:22;;;;;;;17.02;9.63;;;;;;;;;;5068705;28;20121;-79
2021/04/05 13:39:08;;;;;;;22.77;12.05;;;;;;;;;;5105035;28;20028;-79
2021/04/05 13:41:38;;;;;;;23.92;11.10;;;;;;;;;;5087403;28;20569;-78
2021/04/05 13:44:15;;;;;;;22.75;10.85;;;;;;;;;;5085584;28;20103;-77
2021/04/05 13:46:47;;;;;;;20.35;11.25;;;;;;;;;;5086921;28;20032;-78
2021/04/05 13:49:15;;;;;;;19.20;8.60;;;;;;;;;;5088669;28;20109;-79
2021/04/05 13:51:43;;;;;;;16.13;10.70;;;;;;;;;;5101150;28;20048;-79
2021/04/05 13:54:10;;;;;;;22.40;12.55;;;;;;;;;;5068171;28;20167;-77
2021/04/05 13:56:37;;;;;;;23.77;11.52;;;;;;;;;;5070069;28;20648;-80
2021/04/05 13:59:05;;;;;;;22.58;11.45;;;;;;;;;;5087046;28;20036;-80
2021/04/05 14:01:33;;;;;;;22.73;11.70;;;;;;;;;;5087798;28;20013;-79
2021/04/05 14:03:59;;;;;;;21.60;11.68;;;;;;;;;;5084804;28;20086;-80
2021/04/05 14:06:25;;;;;;;21.20;13.63;;;;;;;;;;5068811;28;20425;-79
2021/04/05 14:08:52;;;;;;;31.92;15.65;;;;;;;;;;5097094;28;20040;-78
2021/04/05 14:11:23;;;;;;;25.65;15.23;;;;;;;;;;5059069;28;20080;-78
2021/04/05 14:13:52;;;;;;;25.17;14.73;;;;;;;;;;5060152;28;20021;-78
2021/04/05 14:16:21;;;;;;;25.52;13.52;;;;;;;;;;5065039;28;20020;-80
2021/04/05 14:18:55;;;;;;;13.57;8.05;;;;;;;;;;5074246;28;20063;-78
2021/04/05 14:21:23;;;;;;;12.95;8.30;;;;;;;;;;5060093;28;20013;-78
2021/04/05 14:23:49;;;;;;;19.13;10.50;;;;;;;;;;5075762;28;20028;-79
2021/04/05 14:26:18;;;;;;;15.60;7.78;;;;;;;;;;5075227;28;20021;-79
2021/04/05 14:28:49;;;;;;;18.63;9.85;;;;;;;;;;5093310;28;20051;-79
2021/04/05 14:31:17;;;;;;;21.50;12.07;;;;;;;;;;5082104;22;20039;-75
2021/04/05 14:33:50;;;;;;;18.50;11.95;;;;;;;;;;5031340;28;20033;-75
2021/04/05 14:36:16;;;;;;;;;;;;;;;;;;5034005;28;20017;-75
2021/04/05 14:38:42;;;;;;;0.85;0.52;;;;;;;;;;5034806;28;19915;-75
2021/04/05 14:41:12;;;;;;;2.92;1.10;;;;;;;;;;5032184;28;20017;-74
2021/04/05 14:43:40;;;;;;;3.45;1.17;;;;;;;;;;5033306;28;20432;-75
2021/04/05 14:46:07;;;;;;;2.63;0.90;;;;;;;;;;5031819;28;20033;-75
2021/04/05 14:48:33;;;;;;;3.70;0.93;;;;;;;;;;5033339;28;20029;-75
2021/04/05 14:51:02;;;;;;;1.35;0.90;;;;;;;;;;5032907;28;20101;-75
2021/04/05 14:53:30;;;;;;;2.72;1.08;;;;;;;;;;5032626;28;20025;-76
2021/04/05 14:56:02;;;;;;;1.65;1.05;;;;;;;;;;5032863;28;20033;-75
2021/04/05 14:58:28;;;;;;;4.35;1.25;;;;;;;;;;5032930;28;20033;-76
2021/04/05 15:00:55;;;;;;;4.65;1.50;;;;;;;;;;5031017;28;20139;-75
2021/04/05 15:03:26;;;;;;;4.07;1.50;;;;;;;;;;5032540;28;20028;-76
2021/04/05 15:05:52;;;;;;;3.33;1.42;;;;;;;;;;5032667;28;20033;-76
2021/04/05 15:08:22;;;;;;;2.47;1.40;;;;;;;;;;5032643;28;20026;-75
2021/04/05 15:10:53;;;;;;;5.10;1.58;;;;;;;;;;5032745;28;20028;-76
2021/04/05 15:13:20;;;;;;;3.67;1.90;;;;;;;;;;5032372;28;20034;-75
2021/04/05 15:15:46;;;;;;;5.38;1.65;;;;;;;;;;5032447;28;20067;-75
2021/04/05 15:18:13;;;;;;;5.40;1.35;;;;;;;;;;5032442;28;20128;-75
2021/04/05 15:20:44;;;;;;;5.63;1.67;;;;;;;;;;5031054;28;20039;-75
2021/04/05 15:23:12;;;;;;;4.82;2.63;;;;;;;;;;5030582;28;20032;-75
2021/04/05 15:25:39;;;;;;;7.55;2.75;;;;;;;;;;5028923;28;20125;-75
2021/04/05 15:28:07;;;;;;;3.83;2.45;;;;;;;;;;5026368;28;20036;-75
2021/04/05 15:30:40;;;;;;;36.05;18.67;;;;;;;;;;5028216;28;20454;-75
2021/04/05 15:33:05;;;;;;;;;;;;;;;;;;5026218;28;20064;-75
2021/04/05 15:35:33;;;;;;;8.57;4.32;;;;;;;;;;5026056;28;19952;-75
2021/04/05 15:38:06;;;;;;;21.20;11.75;;;;;;;;;;5027023;28;20122;-76
2021/04/05 15:40:38;;;;;;;19.48;8.60;;;;;;;;;;5026113;28;20025;-75
2021/04/05 15:43:07;;;;;;;85.53;49.35;;;;;;;;;;5027211;28;20056;-75
2021/04/05 15:45:37;;;;;;;15.48;9.00;;;;;;;;;;5025834;28;20025;-75
2021/04/05 15:48:05;;;;;;;3.15;1.85;;;;;;;;;;5024106;28;20519;-75
2021/04/05 15:50:38;;;;;;;20.70;14.50;;;;;;;;;;5027155;28;20112;-75
2021/04/05 15:53:07;;;;;;;9.65;5.40;;;;;;;;;;5027326;28;20544;-74
2021/04/05 15:55:34;;;;;;;4.07;1.50;;;;;;;;;;5027806;28;20089;-74
2021/04/05 15:58:04;;;;;;;8.93;4.05;;;;;;;;;;5026507;28;20022;-74
2021/04/05 16:00:36;;;;;;;6.40;3.97;;;;;;;;;;5025990;28;20490;-75
2021/04/05 16:03:11;;;;;;;7.83;5.60;;;;;;;;;;5027084;28;20057;-74
2021/04/05 16:05:45;;;;;;;20.23;18.10;;;;;;;;;;5027254;28;20067;-75
2021/04/05 16:08:19;;;;;;;4.43;2.60;;;;;;;;;;5027245;28;20689;-75
2021/04/05 16:11:03;;;;;;;8.82;4.15;;;;;;;;;;5025902;28;20025;-75
2021/04/05 16:13:40;;;;;;;59.78;44.03;;;;;;;;;;5026884;28;20041;-74
2021/04/05 16:16:07;;;;;;;11.48;6.10;;;;;;;;;;5027093;28;20757;-74
2021/04/05 16:18:35;;;;;;;17.10;11.20;;;;;;;;;;5026484;28;20044;-75
2021/04/05 16:21:03;;;;;;;10.45;7.45;;;;;;;;;;5027074;28;20104;-75
2021/04/05 16:23:31;;;;;;;8.43;4.63;;;;;;;;;;5026107;28;20432;-74
2021/04/05 16:26:01;;;;;;;6.72;3.33;;;;;;;;;;5026838;28;20117;-74
2021/04/05 16:28:34;;;;;;;11.95;5.30;;;;;;;;;;5026793;28;20025;-75
2021/04/05 16:31:04;;;;;;;1.85;0.82;;;;;;;;;;5026480;28;20041;-75
2021/04/05 16:33:31;;;;;;;5.60;2.83;;;;;;;;;;5030420;28;20108;-75
2021/04/05 16:36:02;;;;;;;3.97;0.90;;;;;;;;;;5030993;28;20037;-75
2021/04/05 16:38:29;;;;;;;3.75;1.40;;;;;;;;;;5030904;28;20116;-74
2021/04/05 16:40:58;;;;;;;4.70;1.20;;;;;;;;;;5029052;28;20033;-74
2021/04/05 16:43:26;;;;;;;7.38;2.80;;;;;;;;;;5029920;28;20113;-75
2021/04/05 16:45:53;;;;;;;5.28;1.25;;;;;;;;;;5030323;28;20096;-75
2021/04/05 16:48:20;;;;;;;3.78;1.20;;;;;;;;;;5029520;28;20065;-75
2021/04/05 16:50:46;;;;;;;5.18;1.17;;;;;;;;;;5030120;28;20064;-75
2021/04/05 16:53:18;;;;;;;3.67;1.10;;;;;;;;;;5029290;28;20034;-75
2021/04/05 16:55:46;;;;;;;7.03;1.48;;;;;;;;;;5030369;28;20504;-74
2021/04/05 16:58:24;;;;;;;9.15;1.85;;;;;;;;;;5029305;28;20041;-75
2021/04/05 17:00:51;;;;;;;8.02;1.67;;;;;;;;;;5030109;28;20021;-76
2021/04/05 17:03:17;;;;;;;3.50;1.55;;;;;;;;;;5028302;28;20377;-75
2021/04/05 17:05:44;;;;;;;4.32;1.35;;;;;;;;;;5031896;28;20051;-75
2021/04/05 17:08:21;;;;;;;5.82;1.92;;;;;;;;;;5037996;28;20038;-75
2021/04/05 17:10:48;;;;;;;3.55;1.70;;;;;;;;;;5027172;28;20026;-76
2021/04/05 17:13:16;;;;;;;3.38;1.23;;;;;;;;;;5029443;28;20029;-77
2021/04/05 17:15:43;;;;;;;6.03;1.08;;;;;;;;;;5031480;28;20033;-77
2021/04/05 17:18:10;;;;;;;2.05;0.68;;;;;;;;;;5027119;28;20037;-77
2021/04/05 17:20:41;;;;;;;4.78;1.20;;;;;;;;;;5027082;28;20030;-78
2021/04/05 17:23:18;;;;;;;4.22;0.88;;;;;;;;;;5029673;28;20026;-77
2021/04/05 17:25:45;;;;;;;5.57;1.02;;;;;;;;;;5034876;28;20025;-78
2021/04/05 17:28:16;;;;;;;8.02;1.38;;;;;;;;;;5035729;28;20037;-78
2021/04/05 17:30:43;;;;;;;4.53;1.88;;;;;;;;;;5036073;28;20034;-78
2021/04/05 17:33:11;;;;;;;3.70;1.33;;;;;;;;;;5030565;28;20040;-77
2021/04/05 17:35:47;;;;;;;3.38;1.27;;;;;;;;;;5033795;28;20145;-78
2021/04/05 17:38:15;;;;;;;4.43;1.20;;;;;;;;;;5028108;28;20032;-78
2021/04/05 17:40:53;;;;;;;3.42;1.10;;;;;;;;;;5029210;28;20107;-81
2021/04/05 17:43:22;;;;;;;4.75;1.42;;;;;;;;;;5030601;28;20030;-80
2021/04/05 17:45:51;;;;;;;6.07;1.58;;;;;;;;;;5035775;28;20367;-80
2021/04/05 17:48:20;;;;;;;4.68;1.20;;;;;;;;;;5033857;28;20044;-82
2021/04/05 17:51:01;;;;;;;3.15;0.93;;;;;;;;;;5032619;28;20037;-80
2021/04/05 17:53:30;;;;;;;2.88;1.23;;;;;;;;;;5032057;28;20028;-80
2021/04/05 17:56:04;;;;;;;4.78;0.93;;;;;;;;;;5033620;28;20077;-82
2021/04/05 17:58:36;;;;;;;2.55;1.10;;;;;;;;;;5035302;28;20724;-81
2021/04/05 18:01:07;;;;;;;4.75;1.38;;;;;;;;;;5035920;28;20075;-81
2021/04/05 18:03:39;;;;;;;7.10;1.38;;;;;;;;;;5036838;28;20029;-82
2021/04/05 18:06:24;;;;;;;4.10;1.25;;;;;;;;;;5040288;28;20200;-82
2021/04/05 18:08:50;;;;;;;3.10;1.15;;;;;;;;;;5037356;28;20037;-78
2021/04/05 18:11:35;;;;;;;3.33;1.33;;;;;;;;;;5034944;28;20168;-78
2021/04/05 18:14:13;;;;;;;4.28;1.50;;;;;;;;;;5018119;28;20040;-77
2021/04/05 18:16:57;;;;;;;3.20;1.10;;;;;;;;;;5030658;28;20505;-76
2021/04/05 18:19:41;;;;;;;4.32;1.42;;;;;;;;;;5030930;28;20461;-77
2021/04/05 18:22:25;;;;;;;4.70;1.67;;;;;;;;;;5029383;28;20025;-77
2021/04/05 18:25:03;;;;;;;2.28;1.15;;;;;;;;;;5029474;28;20032;-77
2021/04/05 18:27:35;;;;;;;3.63;1.00;;;;;;;;;;5029755;28;20071;-77
2021/04/05 18:30:17;;;;;;;2.90;1.23;;;;;;;;;;5029743;28;20120;-78
2021/04/05 18:33:02;;;;;;;2.08;1.10;;;;;;;;;;5028162;28;20506;-78
2021/04/05 18:35:36;;;;;;;6.55;1.77;;;;;;;;;;5030230;28;20025;-77
2021/04/05 18:38:04;;;;;;;3.03;1.33;;;;;;;;;;5030437;28;20043;-77
2021/04/05 18:40:35;;;;;;;3.53;2.15;;;;;;;;;;5030557;28;20040;-78
2021/04/05 18:43:03;;;;;;;3.38;1.33;;;;;;;;;;5029832;28;20049;-78
2021/04/05 18:45:34;;;;;;;2.00;0.95;;;;;;;;;;5029860;28;20848;-78
2021/04/05 18:48:23;;;;;;;3.55;1.40;;;;;;;;;;5028586;28;20449;-77
2021/04/05 18:50:49;;;;;;;4.05;1.02;;;;;;;;;;5030468;28;20179;-78
2021/04/05 18:53:27;;;;;;;5.55;1.75;;;;;;;;;;5030304;28;20821;-77
2021/04/05 18:55:57;;;;;;;5.50;1.48;;;;;;;;;;5030808;28;20025;-76
